Vb La Graciosa — EA5408 — position and weather

sailwx.info

Track history (hours):
 
Tides and Currents Weather Stations Pressure Air Temp Water Temp Dewpoint Dewpoint Depression Visibility Wind Speed Wind Dir Waves Ship Positions

Vb La Graciosa

Last reported at 2017-Nov-10 12:52 UTC. Time now 2017-Nov-18 08:26 UTC.
Position N 28°09' W 015°25'.

Length 22 m.

Type: Ship. MMSI: 225983994.

Date/timePositionNaut miles runAvg speedWind from/ knotsBaromVisibWave heightAir tempDewpointWater temp
2017-Nov-10 12:52N 28°09' W 015°25'2 4.5
2017-Nov-10 12:31N 28°07' W 015°25'2 4.9
2017-Nov-10 12:01N 28°05' W 015°23'1 2.7
2017-Nov-10 11:31N 28°06' W 015°24'3 5.2
2017-Nov-10 11:00N 28°09' W 015°25'0 0.0
2017-Nov-10 10:30N 28°09' W 015°25'0 0.0
2017-Nov-10 10:01N 28°09' W 015°25'0 0.0
2017-Nov-10 09:31N 28°09' W 015°25'0 0.0
2017-Nov-08 18:43N 28°09' W 015°25'1 5.4
2017-Nov-08 18:30N 28°08' W 015°25'2 3.3
2017-Nov-08 18:00N 28°06' W 015°24'3 5.9
2017-Nov-08 17:30N 28°04' W 015°22'2 3.9
2017-Nov-08 17:00N 28°05' W 015°24'4 7.5
2017-Nov-08 16:30N 28°09' W 015°25'0 0.0
2017-Nov-08 16:00N 28°09' W 015°25'0 0.0
2017-Nov-08 15:30N 28°09' W 015°25'0 0.0
2017-Nov-08 15:00N 28°09' W 015°25'0 0.0
2017-Nov-08 14:30N 28°09' W 015°25'0 0.0
2017-Nov-08 14:00N 28°09' W 015°25'0 0.0
2017-Nov-08 13:30N 28°09' W 015°25'0 0.0
2017-Nov-08 13:00N 28°09' W 015°25'0 0.0
2017-Nov-08 12:30N 28°09' W 015°25'0 0.0
2017-Nov-08 12:00N 28°09' W 015°25'2 3.1
2017-Nov-08 11:30N 28°07' W 015°25'1 2.4
2017-Nov-08 11:00N 28°08' W 015°24'0 0.1
2017-Nov-08 10:30N 28°08' W 015°24'1 2.4
2017-Nov-08 10:00N 28°08' W 015°25'4 8.1
2017-Nov-08 09:30N 28°05' W 015°23'1 2.6
2017-Nov-08 09:00N 28°06' W 015°23'4 0.4
2017-Nov-08 00:04N 28°09' W 015°25'0 0.0
2017-Nov-08 00:00N 28°09' W 015°25'3 5.8
2017-Nov-07 23:30N 28°06' W 015°24'2 4.2
2017-Nov-07 23:00N 28°08' W 015°25'1 0.6
2017-Nov-07 21:26N 28°09' W 015°25'2 5.6
2017-Nov-07 21:00N 28°07' W 015°24'3 6.5
2017-Nov-07 20:30N 28°04' W 015°22'2 4.0
2017-Nov-07 20:00N 28°05' W 015°24'4 2.8
2017-Nov-07 18:39N 28°09' W 015°25'1 7.6
2017-Nov-07 18:30N 28°08' W 015°25'0 0.4
2017-Nov-07 18:00N 28°08' W 015°25'1 2.7
2017-Nov-07 17:30N 28°06' W 015°24'3 5.9
2017-Nov-07 17:00N 28°04' W 015°22'5 9.8
2017-Nov-07 16:30N 28°08' W 015°25'1 0.1
2017-Nov-07 10:41N 28°09' W 015°25'1 6.2
2017-Nov-07 10:30N 28°08' W 015°25'1 2.0
2017-Nov-07 10:00N 28°09' W 015°25'0 0.0
2017-Nov-05 11:39N 28°09' W 015°25'0 0.0
2017-Nov-05 11:30N 28°09' W 015°25'0 0.1
2017-Nov-05 08:13N 28°09' W 015°25'0 0.0
2017-Nov-05 00:45N 28°09' W 015°25'2 7.4
2017-Nov-05 00:30N 28°07' W 015°24'2 3.3
2017-Nov-05 00:00N 28°09' W 015°25'0 0.4
2017-Nov-04 23:30N 28°09' W 015°25'1 1.9
2017-Nov-04 23:01N 28°08' W 015°25'5 0.4
2017-Nov-04 12:00N 28°04' W 015°22'3 6.2
2017-Nov-04 11:30N 28°06' W 015°24'2 0.5
2017-Nov-04 07:54N 28°08' W 015°25'0 0.1
2017-Nov-04 06:10N 28°08' W 015°25'1 8.7
2017-Nov-04 06:00N 28°07' W 015°24'2 0.1
2017-Nov-03 08:30N 28°09' W 015°25'1 2.9
2017-Nov-03 08:01N 28°08' W 015°24'1 1.2
2017-Nov-03 06:46N 28°09' W 015°25'0 0.0
2017-Nov-03 05:25N 28°09' W 015°25'2 4.4
2017-Nov-03 05:01N 28°09' W 015°23'2 1.4
2017-Nov-03 03:46N 28°09' W 015°25'2 6.9
2017-Nov-03 03:30N 28°07' W 015°24'1 1.2
2017-Nov-03 03:00N 28°08' W 015°24'2 0.5
2017-Nov-02 23:27N 28°09' W 015°25'2 3.6
2017-Nov-02 23:00N 28°07' W 015°25'4 7.3
2017-Nov-02 22:30N 28°07' W 015°21'3 5.4
2017-Nov-02 22:00N 28°07' W 015°24'1 1.3
2017-Nov-02 21:30N 28°06' W 015°24'2 4.2
2017-Nov-02 21:00N 28°08' W 015°25'0 1.0
2017-Nov-02 20:30N 28°09' W 015°25'0 0.0
2017-Nov-02 20:00N 28°09' W 015°25'0 0.0
2017-Nov-02 19:30N 28°09' W 015°25'2 4.0
2017-Nov-02 19:00N 28°07' W 015°25'1 1.8
2017-Nov-02 18:30N 28°08' W 015°25'1 0.1
2017-Nov-02 11:06N 28°09' W 015°25'1 6.1
2017-Nov-02 11:00N 28°08' W 015°25'4 8.8
2017-Nov-02 10:31N 28°04' W 015°23'3 5.8
2017-Nov-02 10:00N 28°07' W 015°24'2 4.7
2017-Nov-02 09:30N 28°05' W 015°23'1 2.3
2017-Nov-02 09:00N 28°06' W 015°24'3 6.6
2017-Nov-02 08:30N 28°09' W 015°25'0 0.0
2017-Nov-02 08:00N 28°09' W 015°25'0 0.0
2017-Nov-02 07:30N 28°09' W 015°25'0 0.0
2017-Nov-02 07:00N 28°09' W 015°25'2 4.4
2017-Nov-02 06:30N 28°07' W 015°24'4 7.1
2017-Nov-02 06:00N 28°04' W 015°22'5 9.0
2017-Nov-02 05:30N 28°08' W 015°25'1 0.2
2017-Nov-01 21:50N 28°09' W 015°25'3 8.7
2017-Nov-01 21:30N 28°06' W 015°24'3 5.1
2017-Nov-01 21:00N 28°04' W 015°22'510.1
2017-Nov-01 20:30N 28°08' W 015°25'2 2.7
2017-Nov-01 19:44N 28°07' W 015°23'2 8.5
2017-Nov-01 19:30N 28°08' W 015°25'1 1.2
2017-Nov-01 19:00N 28°09' W 015°25'0 0.0
2017-Nov-01 18:30N 28°09' W 015°25'0 0.0
2017-Oct-31 22:26N 28°09' W 015°25'3 7.7
2017-Oct-31 22:00N 28°07' W 015°22'0 0.9
2017-Oct-31 21:30N 28°07' W 015°22'2 3.6
2017-Oct-31 21:00N 28°07' W 015°24'0 0.1
2017-Oct-31 20:30N 28°07' W 015°24'2 3.1
2017-Oct-31 20:00N 28°06' W 015°24'3 2.2
2017-Oct-31 18:36N 28°09' W 015°25'0 0.0
2017-Oct-31 18:31N 28°09' W 015°25'4 7.9
2017-Oct-31 18:01N 28°05' W 015°24'2 3.8
2017-Oct-31 17:31N 28°04' W 015°22'5 9.6
2017-Oct-31 17:00N 28°08' W 015°25'1 1.5
2017-Oct-31 16:31N 28°09' W 015°25'3 6.6
2017-Oct-31 16:01N 28°06' W 015°24'2 4.5
2017-Oct-31 15:30N 28°04' W 015°22'2 3.5
2017-Oct-31 15:00N 28°05' W 015°23'  
Track history (hours):
 
Tides and Currents Weather Stations Pressure Air Temp Water Temp Dewpoint Dewpoint Depression Visibility Wind Speed Wind Dir Waves Ship Positions

Vb La Graciosa

Last reported at 2017-Nov-10 12:52 UTC. Time now 2017-Nov-18 08:26 UTC.
Position N 28°09' W 015°25'.

Length 22 m.

Type: Ship. MMSI: 225983994.

Date/timePositionNaut miles runAvg speedWind from/ knotsBaromVisibWave heightAir tempDewpointWater temp
2017-Nov-10 12:52N 28°09' W 015°25'2 4.5
2017-Nov-10 12:31N 28°07' W 015°25'2 4.9
2017-Nov-10 12:01N 28°05' W 015°23'1 2.7
2017-Nov-10 11:31N 28°06' W 015°24'3 5.2
2017-Nov-10 11:00N 28°09' W 015°25'0 0.0
2017-Nov-10 10:30N 28°09' W 015°25'0 0.0
2017-Nov-10 10:01N 28°09' W 015°25'0 0.0
2017-Nov-10 09:31N 28°09' W 015°25'0 0.0
2017-Nov-08 18:43N 28°09' W 015°25'1 5.4
2017-Nov-08 18:30N 28°08' W 015°25'2 3.3
2017-Nov-08 18:00N 28°06' W 015°24'3 5.9
2017-Nov-08 17:30N 28°04' W 015°22'2 3.9
2017-Nov-08 17:00N 28°05' W 015°24'4 7.5
2017-Nov-08 16:30N 28°09' W 015°25'0 0.0
2017-Nov-08 16:00N 28°09' W 015°25'0 0.0
2017-Nov-08 15:30N 28°09' W 015°25'0 0.0
2017-Nov-08 15:00N 28°09' W 015°25'0 0.0
2017-Nov-08 14:30N 28°09' W 015°25'0 0.0
2017-Nov-08 14:00N 28°09' W 015°25'0 0.0
2017-Nov-08 13:30N 28°09' W 015°25'0 0.0
2017-Nov-08 13:00N 28°09' W 015°25'0 0.0
2017-Nov-08 12:30N 28°09' W 015°25'0 0.0
2017-Nov-08 12:00N 28°09' W 015°25'2 3.1
2017-Nov-08 11:30N 28°07' W 015°25'1 2.4
2017-Nov-08 11:00N 28°08' W 015°24'0 0.1
2017-Nov-08 10:30N 28°08' W 015°24'1 2.4
2017-Nov-08 10:00N 28°08' W 015°25'4 8.1
2017-Nov-08 09:30N 28°05' W 015°23'1 2.6
2017-Nov-08 09:00N 28°06' W 015°23'4 0.4
2017-Nov-08 00:04N 28°09' W 015°25'0 0.0
2017-Nov-08 00:00N 28°09' W 015°25'3 5.8
2017-Nov-07 23:30N 28°06' W 015°24'2 4.2
2017-Nov-07 23:00N 28°08' W 015°25'1 0.6
2017-Nov-07 21:26N 28°09' W 015°25'2 5.6
2017-Nov-07 21:00N 28°07' W 015°24'3 6.5
2017-Nov-07 20:30N 28°04' W 015°22'2 4.0
2017-Nov-07 20:00N 28°05' W 015°24'4 2.8
2017-Nov-07 18:39N 28°09' W 015°25'1 7.6
2017-Nov-07 18:30N 28°08' W 015°25'0 0.4
2017-Nov-07 18:00N 28°08' W 015°25'1 2.7
2017-Nov-07 17:30N 28°06' W 015°24'3 5.9
2017-Nov-07 17:00N 28°04' W 015°22'5 9.8
2017-Nov-07 16:30N 28°08' W 015°25'1 0.1
2017-Nov-07 10:41N 28°09' W 015°25'1 6.2
2017-Nov-07 10:30N 28°08' W 015°25'1 2.0
2017-Nov-07 10:00N 28°09' W 015°25'0 0.0
2017-Nov-05 11:39N 28°09' W 015°25'0 0.0
2017-Nov-05 11:30N 28°09' W 015°25'0 0.1
2017-Nov-05 08:13N 28°09' W 015°25'0 0.0
2017-Nov-05 00:45N 28°09' W 015°25'2 7.4
2017-Nov-05 00:30N 28°07' W 015°24'2 3.3
2017-Nov-05 00:00N 28°09' W 015°25'0 0.4
2017-Nov-04 23:30N 28°09' W 015°25'1 1.9
2017-Nov-04 23:01N 28°08' W 015°25'5 0.4
2017-Nov-04 12:00N 28°04' W 015°22'3 6.2
2017-Nov-04 11:30N 28°06' W 015°24'2 0.5
2017-Nov-04 07:54N 28°08' W 015°25'0 0.1
2017-Nov-04 06:10N 28°08' W 015°25'1 8.7
2017-Nov-04 06:00N 28°07' W 015°24'2 0.1
2017-Nov-03 08:30N 28°09' W 015°25'1 2.9
2017-Nov-03 08:01N 28°08' W 015°24'1 1.2
2017-Nov-03 06:46N 28°09' W 015°25'0 0.0
2017-Nov-03 05:25N 28°09' W 015°25'2 4.4
2017-Nov-03 05:01N 28°09' W 015°23'2 1.4
2017-Nov-03 03:46N 28°09' W 015°25'2 6.9
2017-Nov-03 03:30N 28°07' W 015°24'1 1.2
2017-Nov-03 03:00N 28°08' W 015°24'2 0.5
2017-Nov-02 23:27N 28°09' W 015°25'2 3.6
2017-Nov-02 23:00N 28°07' W 015°25'4 7.3
2017-Nov-02 22:30N 28°07' W 015°21'3 5.4
2017-Nov-02 22:00N 28°07' W 015°24'1 1.3
2017-Nov-02 21:30N 28°06' W 015°24'2 4.2
2017-Nov-02 21:00N 28°08' W 015°25'0 1.0
2017-Nov-02 20:30N 28°09' W 015°25'0 0.0
2017-Nov-02 20:00N 28°09' W 015°25'0 0.0
2017-Nov-02 19:30N 28°09' W 015°25'2 4.0
2017-Nov-02 19:00N 28°07' W 015°25'1 1.8
2017-Nov-02 18:30N 28°08' W 015°25'1 0.1
2017-Nov-02 11:06N 28°09' W 015°25'1 6.1
2017-Nov-02 11:00N 28°08' W 015°25'4 8.8
2017-Nov-02 10:31N 28°04' W 015°23'3 5.8
2017-Nov-02 10:00N 28°07' W 015°24'2 4.7
2017-Nov-02 09:30N 28°05' W 015°23'1 2.3
2017-Nov-02 09:00N 28°06' W 015°24'3 6.6
2017-Nov-02 08:30N 28°09' W 015°25'0 0.0
2017-Nov-02 08:00N 28°09' W 015°25'0 0.0
2017-Nov-02 07:30N 28°09' W 015°25'0 0.0
2017-Nov-02 07:00N 28°09' W 015°25'2 4.4
2017-Nov-02 06:30N 28°07' W 015°24'4 7.1
2017-Nov-02 06:00N 28°04' W 015°22'5 9.0
2017-Nov-02 05:30N 28°08' W 015°25'1 0.2
2017-Nov-01 21:50N 28°09' W 015°25'3 8.7
2017-Nov-01 21:30N 28°06' W 015°24'3 5.1
2017-Nov-01 21:00N 28°04' W 015°22'510.1
2017-Nov-01 20:30N 28°08' W 015°25'2 2.7
2017-Nov-01 19:44N 28°07' W 015°23'2 8.5
2017-Nov-01 19:30N 28°08' W 015°25'1 1.2
2017-Nov-01 19:00N 28°09' W 015°25'0 0.0
2017-Nov-01 18:30N 28°09' W 015°25'0 0.0
2017-Oct-31 22:26N 28°09' W 015°25'3 7.7
2017-Oct-31 22:00N 28°07' W 015°22'0 0.9
2017-Oct-31 21:30N 28°07' W 015°22'2 3.6
2017-Oct-31 21:00N 28°07' W 015°24'0 0.1
2017-Oct-31 20:30N 28°07' W 015°24'2 3.1
2017-Oct-31 20:00N 28°06' W 015°24'3 2.2
2017-Oct-31 18:36N 28°09' W 015°25'0 0.0
2017-Oct-31 18:31N 28°09' W 015°25'4 7.9
2017-Oct-31 18:01N 28°05' W 015°24'2 3.8
2017-Oct-31 17:31N 28°04' W 015°22'5 9.6
2017-Oct-31 17:00N 28°08' W 015°25'1 1.5
2017-Oct-31 16:31N 28°09' W 015°25'3 6.6
2017-Oct-31 16:01N 28°06' W 015°24'2 4.5
2017-Oct-31 15:30N 28°04' W 015°22'2 3.5
2017-Oct-31 15:00N 28°05' W 015°23'  

Dump ship's entire track history